Time;durP1;ratioP1;P1;durP2;ratioP2;P2;SDS_P1;SDS_P2;PMS_P1;PMS_P2;Temp;Humidity;BMP_temperature;BMP_pressure;BME280_temperature;BME280_humidity;BME280_pressure;Samples;Min_cycle;Max_cycle;Signal;HPM_P1;HPM_P2
2023/08/05 00:01:11;;;;;;;;;;;21.40;82.70;;;;;;4138832;28;19936;-43
2023/08/05 00:03:54;;;;;;;;;;;21.40;82.80;;;;;;4131400;28;19936;-43
2023/08/05 00:06:36;;;;;;;;;;;21.40;82.90;;;;;;4144593;28;20288;-43
2023/08/05 00:09:18;;;;;;;;;;;21.40;83.00;;;;;;4136813;28;20010;-42
2023/08/05 00:12:04;;;;;;;;;;;21.40;83.00;;;;;;4136527;28;19936;-43
2023/08/05 00:14:47;;;;;;;;;;;21.30;83.00;;;;;;4144082;28;19940;-42
2023/08/05 00:17:29;;;;;;;;;;;21.40;83.10;;;;;;4149121;28;19936;-42
2023/08/05 00:20:12;;;;;;;;;;;21.40;83.20;;;;;;4135905;28;19952;-42
2023/08/05 00:22:53;;;;;;;;;;;21.40;83.30;;;;;;4144670;28;19974;-42
2023/08/05 00:25:34;;;;;;;;;;;21.40;84.20;;;;;;4150675;28;20371;-42
2023/08/05 00:28:17;;;;;;;;;;;21.40;83.30;;;;;;4135201;28;19935;-43
2023/08/05 00:30:58;;;;;;;;;;;21.40;83.30;;;;;;4147801;28;19932;-43
2023/08/05 00:33:39;;;;;;;;;;;21.30;83.20;;;;;;4132711;28;19932;-43
2023/08/05 00:36:21;;;;;;;;;;;21.30;83.10;;;;;;4130556;28;19933;-42
2023/08/05 00:39:02;;;;;;;;;;;21.30;83.10;;;;;;4132902;28;19932;-43
2023/08/05 00:41:44;;;;;;;;;;;21.30;83.10;;;;;;4164283;28;19932;-43
2023/08/05 00:44:27;;;;;;;;;;;21.30;83.10;;;;;;4163821;28;19936;-43
2023/08/05 00:47:09;;;;;;;;;;;21.30;83.10;;;;;;4157453;28;19990;-43
2023/08/05 00:49:51;;;;;;;;;;;21.30;83.10;;;;;;4147887;28;19932;-43
2023/08/05 00:52:32;;;;;;;;;;;21.30;83.10;;;;;;4138796;28;19979;-42
2023/08/05 00:55:16;;;;;;;;;;;21.30;83.00;;;;;;4119130;28;19936;-42
2023/08/05 00:57:58;;;;;;;;;;;21.30;83.00;;;;;;4142006;28;19952;-44
2023/08/05 01:00:41;;;;;;;;;;;21.30;83.00;;;;;;4166305;28;19936;-42
2023/08/05 01:03:22;;;;;;;;;;;21.30;83.00;;;;;;4165234;28;20062;-42
2023/08/05 01:06:04;;;;;;;;;;;21.30;82.90;;;;;;4143120;28;19931;-42
2023/08/05 01:08:46;;;;;;;;;;;21.30;82.90;;;;;;4133851;28;19964;-42
2023/08/05 01:11:28;;;;;;;;;;;21.30;82.90;;;;;;4133181;28;19936;-50
2023/08/05 01:14:09;;;;;;;;;;;21.20;82.80;;;;;;4112622;28;19952;-50
2023/08/05 01:16:52;;;;;;;;;;;21.30;82.90;;;;;;4100666;28;19936;-50
2023/08/05 01:19:38;;;;;;;;;;;21.30;82.80;;;;;;4132403;28;19935;-50
2023/08/05 01:22:25;;;;;;;;;;;21.30;83.70;;;;;;4159920;28;19955;-51
2023/08/05 01:25:09;;;;;;;;;;;21.20;82.80;;;;;;4122439;28;19986;-50
2023/08/05 01:27:53;;;;;;;;;;;21.20;82.80;;;;;;4104415;28;19932;-51
2023/08/05 01:30:39;;;;;;;;;;;21.20;82.80;;;;;;4161641;28;19935;-50
2023/08/05 01:33:20;;;;;;;;;;;21.20;82.80;;;;;;4166557;28;19936;-51
2023/08/05 01:36:01;;;;;;;;;;;21.20;82.80;;;;;;4123129;28;20249;-53
2023/08/05 01:38:46;;;;;;;;;;;21.20;82.70;;;;;;4154131;28;19932;-49
2023/08/05 01:41:27;;;;;;;;;;;21.20;82.70;;;;;;4151500;28;20300;-52
2023/08/05 01:44:11;;;;;;;;;;;21.20;82.70;;;;;;4140405;28;19986;-52
2023/08/05 01:46:53;;;;;;;;;;;21.20;82.70;;;;;;4148923;28;19975;-53
2023/08/05 01:49:35;;;;;;;;;;;21.20;82.70;;;;;;4138491;28;19986;-51
2023/08/05 01:52:17;;;;;;;;;;;21.20;83.50;;;;;;4113888;28;20376;-50
2023/08/05 01:54:58;;;;;;;;;;;21.20;82.70;;;;;;4137075;28;20403;-51
2023/08/05 01:57:44;;;;;;;;;;;21.20;82.70;;;;;;4153383;28;19932;-53
2023/08/05 02:00:30;;;;;;;;;;;21.20;82.60;;;;;;4156633;28;20385;-51
2023/08/05 02:03:11;;;;;;;;;;;21.10;82.60;;;;;;4148055;28;20056;-53
2023/08/05 02:05:53;;;;;;;;;;;21.10;83.40;;;;;;4146899;28;19932;-50
2023/08/05 02:08:34;;;;;;;;;;;21.10;82.60;;;;;;4124166;28;19999;-50
2023/08/05 02:11:18;;;;;;;;;;;21.10;82.50;;;;;;4146505;28;20292;-51
2023/08/05 02:14:05;;;;;;;;;;;21.10;82.60;;;;;;4087042;28;19937;-50
2023/08/05 02:16:51;;;;;;;;;;;21.10;82.50;;;;;;4128457;28;19932;-51
2023/08/05 02:19:33;;;;;;;;;;;21.10;82.50;;;;;;4144607;28;19936;-51
2023/08/05 02:22:18;;;;;;;;;;;21.10;83.40;;;;;;4147497;28;20406;-51
2023/08/05 02:24:59;;;;;;;;;;;21.10;82.50;;;;;;4126624;28;19947;-51
2023/08/05 02:27:41;;;;;;;;;;;21.10;82.50;;;;;;4103117;28;19933;-51
2023/08/05 02:30:23;;;;;;;;;;;21.10;82.50;;;;;;4116811;28;20011;-52
2023/08/05 02:33:11;;;;;;;;;;;21.10;82.40;;;;;;4138600;28;20009;-50
2023/08/05 02:35:57;;;;;;;;;;;21.00;82.40;;;;;;4134991;28;20414;-50
2023/08/05 02:38:42;;;;;;;;;;;21.00;82.40;;;;;;4128582;28;19937;-50
2023/08/05 02:41:23;;;;;;;;;;;21.00;82.30;;;;;;4132221;28;19988;-53
2023/08/05 02:44:05;;;;;;;;;;;21.00;82.30;;;;;;4142055;28;20407;-51
2023/08/05 02:46:47;;;;;;;;;;;21.00;82.30;;;;;;4153916;28;19936;-50
2023/08/05 02:49:30;;;;;;;;;;;21.00;82.30;;;;;;4127669;28;19933;-50
2023/08/05 02:52:12;;;;;;;;;;;21.00;82.20;;;;;;4126663;28;19936;-50
2023/08/05 02:54:59;;;;;;;;;;;21.00;82.20;;;;;;4136637;28;19932;-52
2023/08/05 02:57:41;;;;;;;;;;;21.00;82.20;;;;;;4130279;28;19983;-50
2023/08/05 03:00:22;;;;;;;;;;;21.00;82.20;;;;;;4133486;28;19937;-43
2023/08/05 03:03:04;;;;;;;;;;;21.00;82.20;;;;;;4135137;28;20015;-43
2023/08/05 03:05:48;;;;;;;;;;;21.00;82.20;;;;;;4134113;28;19933;-43
2023/08/05 03:08:29;;;;;;;;;;;20.90;82.10;;;;;;4156858;28;19932;-43
2023/08/05 03:11:11;;;;;;;;;;;20.90;82.10;;;;;;4136060;28;20064;-43
2023/08/05 03:13:53;;;;;;;;;;;20.90;82.10;;;;;;4136488;28;19932;-43
2023/08/05 03:16:34;;;;;;;;;;;20.90;82.10;;;;;;4144345;28;20346;-43
2023/08/05 03:19:21;;;;;;;;;;;20.90;83.00;;;;;;4124147;28;19984;-42
2023/08/05 03:22:07;;;;;;;;;;;20.90;82.10;;;;;;4119917;28;19937;-43
2023/08/05 03:24:53;;;;;;;;;;;20.90;82.10;;;;;;4152558;28;20067;-43
2023/08/05 03:27:35;;;;;;;;;;;20.90;82.00;;;;;;4148664;28;19984;-43
2023/08/05 03:30:20;;;;;;;;;;;20.90;82.10;;;;;;4146117;28;19932;-42
2023/08/05 03:33:05;;;;;;;;;;;20.90;82.00;;;;;;4145782;28;20050;-43
2023/08/05 03:35:49;;;;;;;;;;;20.90;82.00;;;;;;4163315;28;19962;-43
2023/08/05 03:38:36;;;;;;;;;;;20.90;82.00;;;;;;4155278;28;19932;-43
2023/08/05 03:41:17;;;;;;;;;;;20.80;82.00;;;;;;4141742;28;19936;-43
2023/08/05 03:43:58;;;;;;;;;;;20.80;81.90;;;;;;4134453;28;20035;-43
2023/08/05 03:46:41;;;;;;;;;;;20.80;82.00;;;;;;4137569;28;19948;-43
2023/08/05 03:49:23;;;;;;;;;;;20.80;81.90;;;;;;4147933;28;20375;-43
2023/08/05 03:52:05;;;;;;;;;;;20.80;82.80;;;;;;4143866;28;19987;-43
2023/08/05 03:54:48;;;;;;;;;;;20.80;81.90;;;;;;4128527;28;19983;-53
2023/08/05 03:57:30;;;;;;;;;;;20.80;81.90;;;;;;4096379;28;19936;-51
2023/08/05 04:00:12;;;;;;;;;;;20.80;81.90;;;;;;4142849;28;19936;-43
2023/08/05 04:02:53;;;;;;;;;;;20.80;81.90;;;;;;4121669;28;19963;-42
2023/08/05 04:05:40;;;;;;;;;;;20.80;81.90;;;;;;4153655;28;20374;-43
2023/08/05 04:08:26;;;;;;;;;;;20.80;82.00;;;;;;4159684;28;20393;-42
2023/08/05 04:11:09;;;;;;;;;;;20.70;81.90;;;;;;4148022;28;19936;-42
2023/08/05 04:13:58;;;;;;;;;;;20.80;81.90;;;;;;4142705;28;19935;-42
2023/08/05 04:16:40;;;;;;;;;;;20.70;81.80;;;;;;4130850;28;19932;-43
2023/08/05 04:19:25;;;;;;;;;;;20.70;81.80;;;;;;4117045;28;19947;-50
2023/08/05 04:22:07;;;;;;;;;;;20.70;82.70;;;;;;4143699;28;19936;-42
2023/08/05 04:24:51;;;;;;;;;;;20.70;81.80;;;;;;4129074;28;20996;-42
2023/08/05 04:27:34;;;;;;;;;;;20.70;82.70;;;;;;4123688;28;19967;-50
2023/08/05 04:30:16;;;;;;;;;;;20.70;81.70;;;;;;4126349;28;19932;-50
2023/08/05 04:33:05;;;;;;;;;;;20.70;82.60;;;;;;4154711;28;19973;-52
2023/08/05 04:35:50;;;;;;;;;;;20.70;81.70;;;;;;4163520;28;19932;-51
2023/08/05 04:38:32;;;;;;;;;;;20.70;81.70;;;;;;4159884;28;19932;-42
2023/08/05 04:41:14;;;;;;;;;;;20.70;81.60;;;;;;4136307;28;19932;-42
2023/08/05 04:43:58;;;;;;;;;;;20.70;82.50;;;;;;4154454;28;20399;-42
2023/08/05 04:46:40;;;;;;;;;;;20.70;81.70;;;;;;4105879;28;20313;-42
2023/08/05 04:49:21;;;;;;;;;;;20.70;81.60;;;;;;4125576;28;20387;-43
2023/08/05 04:52:05;;;;;;;;;;;20.70;81.80;;;;;;4132748;28;20007;-43
2023/08/05 04:54:47;;;;;;;;;;;20.80;82.10;;;;;;4132315;28;20404;-43
2023/08/05 04:57:29;;;;;;;;;;;20.80;83.00;;;;;;4122707;28;19978;-43
2023/08/05 05:00:13;;;;;;;;;;;20.80;82.00;;;;;;4134876;28;19935;-43
2023/08/05 05:03:02;;;;;;;;;;;20.80;81.90;;;;;;4111167;28;19947;-43
2023/08/05 05:05:45;;;;;;;;;;;20.80;81.80;;;;;;4109197;28;20031;-43
2023/08/05 05:08:27;;;;;;;;;;;20.80;81.70;;;;;;4136929;28;20040;-42
2023/08/05 05:11:09;;;;;;;;;;;20.80;81.70;;;;;;4145001;28;20019;-42
2023/08/05 05:13:56;;;;;;;;;;;20.80;81.70;;;;;;4129968;28;20300;-50
2023/08/05 05:16:41;;;;;;;;;;;20.80;81.70;;;;;;4114390;28;19971;-42
2023/08/05 05:19:33;;;;;;;;;;;20.90;82.60;;;;;;4106529;28;19940;-48
2023/08/05 05:22:20;;;;;;;;;;;20.90;81.50;;;;;;4145431;28;19936;-43
2023/08/05 05:25:04;;;;;;;;;;;20.90;81.40;;;;;;4113997;28;20395;-50
2023/08/05 05:27:48;;;;;;;;;;;21.00;81.30;;;;;;4137036;28;19982;-50
2023/08/05 05:30:32;;;;;;;;;;;21.00;81.20;;;;;;4150990;28;20311;-43
2023/08/05 05:33:18;;;;;;;;;;;21.00;81.10;;;;;;4132780;28;19932;-43
2023/08/05 05:36:00;;;;;;;;;;;21.10;80.90;;;;;;4140949;28;20091;-43
2023/08/05 05:38:45;;;;;;;;;;;21.10;80.60;;;;;;4137208;28;19936;-43
2023/08/05 05:41:27;;;;;;;;;;;21.20;80.30;;;;;;4120660;28;19932;-51
2023/08/05 05:44:09;;;;;;;;;;;21.20;79.80;;;;;;4133726;28;19949;-50
2023/08/05 05:46:51;;;;;;;;;;;21.30;79.30;;;;;;4142792;28;19936;-52
2023/08/05 05:49:34;;;;;;;;;;;21.30;79.80;;;;;;4142576;28;19932;-54
2023/08/05 05:52:20;;;;;;;;;;;21.40;78.90;;;;;;4126001;28;20386;-43
2023/08/05 05:55:02;;;;;;;;;;;21.40;78.80;;;;;;4132773;28;20399;-42
2023/08/05 05:57:48;;;;;;;;;;;21.50;78.60;;;;;;4105768;28;20721;-50
2023/08/05 06:00:33;;;;;;;;;;;21.50;78.30;;;;;;4122958;28;19935;-50
2023/08/05 06:03:17;;;;;;;;;;;21.60;78.10;;;;;;4104028;28;19933;-43
2023/08/05 06:06:04;;;;;;;;;;;21.60;77.70;;;;;;4085866;28;20028;-43
2023/08/05 06:08:46;;;;;;;;;;;21.60;77.40;;;;;;4131922;28;19931;-44
2023/08/05 06:11:28;;;;;;;;;;;21.60;76.90;;;;;;4125288;28;20022;-51
2023/08/05 06:14:20;;;;;;;;;;;21.60;77.10;;;;;;4129607;28;20390;-50
2023/08/05 06:17:04;;;;;;;;;;;21.60;78.00;;;;;;4136903;28;19936;-54
2023/08/05 06:19:48;;;;;;;;;;;21.60;78.70;;;;;;4114278;28;19936;-53
2023/08/05 06:22:34;;;;;;;;;;;21.60;78.90;;;;;;4121331;28;19936;-52
2023/08/05 06:25:17;;;;;;;;;;;21.60;78.60;;;;;;4108209;28;20018;-54
2023/08/05 06:28:04;;;;;;;;;;;21.60;78.30;;;;;;4118600;28;19977;-44
2023/08/05 06:30:49;;;;;;;;;;;21.60;77.90;;;;;;4134158;28;19932;-44
2023/08/05 06:33:37;;;;;;;;;;;21.60;77.70;;;;;;4125311;28;20478;-45
2023/08/05 06:36:20;;;;;;;;;;;21.60;77.40;;;;;;4128151;28;20433;-53
2023/08/05 06:39:07;;;;;;;;;;;21.70;77.10;;;;;;4104431;28;19936;-51
2023/08/05 06:41:51;;;;;;;;;;;21.70;76.70;;;;;;4124693;28;19932;-51
2023/08/05 06:44:47;;;;;;;;;;;21.70;76.50;;;;;;4113250;28;19936;-53
2023/08/05 06:47:31;;;;;;;;;;;21.70;76.20;;;;;;4092022;28;20051;-43
2023/08/05 06:50:15;;;;;;;;;;;21.70;75.90;;;;;;4092442;28;20083;-46
2023/08/05 06:52:57;;;;;;;;;;;21.80;75.70;;;;;;4130759;28;19997;-44
2023/08/05 06:55:44;;;;;;;;;;;21.80;75.40;;;;;;4115709;28;19983;-43
2023/08/05 06:58:28;;;;;;;;;;;21.80;75.20;;;;;;4119868;28;19932;-43
2023/08/05 07:01:15;;;;;;;;;;;21.80;75.00;;;;;;4125499;28;20064;-42
2023/08/05 07:03:58;;;;;;;;;;;21.80;74.70;;;;;;4115722;28;19971;-42
2023/08/05 07:06:40;;;;;;;;;;;21.80;74.20;;;;;;4123825;28;20305;-43
2023/08/05 07:09:25;;;;;;;;;;;21.80;73.80;;;;;;4117136;28;19936;-42
2023/08/05 07:12:13;;;;;;;;;;;21.90;73.50;;;;;;4112027;28;20416;-43
2023/08/05 07:14:55;;;;;;;;;;;21.90;73.20;;;;;;4102739;28;19964;-43
2023/08/05 07:17:41;;;;;;;;;;;21.90;72.90;;;;;;4127430;28;19936;-43
2023/08/05 07:20:23;;;;;;;;;;;21.90;72.70;;;;;;4095385;28;19997;-50
2023/08/05 07:23:08;;;;;;;;;;;21.90;72.50;;;;;;4157856;28;20298;-49
2023/08/05 07:25:49;;;;;;;;;;;22.00;72.20;;;;;;4130107;28;20011;-43
2023/08/05 07:28:35;;;;;;;;;;;22.00;71.90;;;;;;4135246;28;19932;-42
2023/08/05 07:31:17;;;;;;;;;;;22.10;71.70;;;;;;4125342;28;20147;-43
2023/08/05 07:33:59;;;;;;;;;;;22.00;71.50;;;;;;4095544;28;19979;-42
2023/08/05 07:36:43;;;;;;;;;;;22.00;71.50;;;;;;4126283;28;19952;-43
2023/08/05 07:39:30;;;;;;;;;;;22.00;71.50;;;;;;4129122;28;19939;-43
2023/08/05 07:42:14;;;;;;;;;;;21.90;71.40;;;;;;4108293;28;20064;-43
2023/08/05 07:44:59;;;;;;;;;;;21.90;71.50;;;;;;4089841;28;19986;-43
2023/08/05 07:47:47;;;;;;;;;;;21.90;72.50;;;;;;4140873;28;19932;-42
2023/08/05 07:50:30;;;;;;;;;;;21.80;71.80;;;;;;4131370;28;19936;-50
2023/08/05 07:53:13;;;;;;;;;;;21.80;71.90;;;;;;4139492;28;20051;-45
2023/08/05 07:55:55;;;;;;;;;;;21.80;72.00;;;;;;4125971;28;19985;-42
2023/08/05 07:58:45;;;;;;;;;;;21.80;72.20;;;;;;4138047;28;20422;-42
2023/08/05 08:01:33;;;;;;;;;;;21.80;72.40;;;;;;4131567;28;20311;-43
2023/08/05 08:04:15;;;;;;;;;;;21.80;72.50;;;;;;4125923;28;20060;-44
2023/08/05 08:07:00;;;;;;;;;;;21.80;72.50;;;;;;4135733;28;19933;-52
2023/08/05 08:09:44;;;;;;;;;;;21.70;72.40;;;;;;4129798;28;19937;-44
2023/08/05 08:12:29;;;;;;;;;;;21.70;72.60;;;;;;4109664;28;19944;-43
2023/08/05 08:15:14;;;;;;;;;;;21.70;72.90;;;;;;4118800;28;20307;-50
2023/08/05 08:17:58;;;;;;;;;;;21.70;73.40;;;;;;4136792;28;19966;-52
2023/08/05 08:20:48;;;;;;;;;;;21.70;73.60;;;;;;4096616;28;19933;-44
2023/08/05 08:23:37;;;;;;;;;;;21.70;73.70;;;;;;4100712;28;20060;-51
2023/08/05 08:26:22;;;;;;;;;;;21.80;73.70;;;;;;4099542;28;19932;-44
2023/08/05 08:29:04;;;;;;;;;;;21.80;73.80;;;;;;4109700;28;19983;-51
2023/08/05 08:31:47;;;;;;;;;;;21.80;73.70;;;;;;4141867;28;19974;-42
2023/08/05 08:34:31;;;;;;;;;;;21.80;73.60;;;;;;4145661;28;20300;-43
2023/08/05 08:37:16;;;;;;;;;;;21.80;73.60;;;;;;4138390;28;19985;-50
2023/08/05 08:40:02;;;;;;;;;;;21.80;73.30;;;;;;4119861;28;19932;-49
2023/08/05 08:42:46;;;;;;;;;;;21.80;73.00;;;;;;4100351;28;19995;-51
2023/08/05 08:45:35;;;;;;;;;;;21.80;72.80;;;;;;4143775;28;19935;-51
2023/08/05 08:48:19;;;;;;;;;;;21.80;72.70;;;;;;4103976;28;19932;-50
2023/08/05 08:51:10;;;;;;;;;;;21.80;72.50;;;;;;4132720;28;19931;-47
2023/08/05 08:53:53;;;;;;;;;;;21.80;72.30;;;;;;4115511;28;19936;-51
2023/08/05 08:56:36;;;;;;;;;;;21.90;72.30;;;;;;4125935;28;19977;-49
2023/08/05 08:59:17;;;;;;;;;;;21.80;72.10;;;;;;4166250;28;19931;-53
2023/08/05 09:02:01;;;;;;;;;;;21.90;72.20;;;;;;4133654;28;19933;-43
2023/08/05 09:04:43;;;;;;;;;;;21.80;72.20;;;;;;4117976;28;19967;-43
2023/08/05 09:07:27;;;;;;;;;;;21.80;72.70;;;;;;4140778;28;20018;-42
2023/08/05 09:10:09;;;;;;;;;;;21.80;72.50;;;;;;4140687;28;19951;-47
2023/08/05 09:12:50;;;;;;;;;;;21.90;72.50;;;;;;4091305;28;20426;-44
2023/08/05 09:15:39;;;;;;;;;;;21.90;72.50;;;;;;4119848;28;19986;-43
2023/08/05 09:18:21;;;;;;;;;;;21.90;72.50;;;;;;4125350;28;20256;-50
2023/08/05 09:21:06;;;;;;;;;;;21.90;72.50;;;;;;4126498;28;19992;-49
2023/08/05 09:23:50;;;;;;;;;;;22.00;72.80;;;;;;4150046;28;20044;-50
2023/08/05 09:26:32;;;;;;;;;;;22.00;72.50;;;;;;4148694;28;19933;-49
2023/08/05 09:29:21;;;;;;;;;;;22.10;72.40;;;;;;4132795;28;19982;-50
2023/08/05 09:32:03;;;;;;;;;;;22.10;72.20;;;;;;4134785;28;19954;-43
2023/08/05 09:34:50;;;;;;;;;;;22.10;71.80;;;;;;4122784;28;19932;-43
2023/08/05 09:37:33;;;;;;;;;;;22.10;71.40;;;;;;4129170;28;19940;-43
2023/08/05 09:40:21;;;;;;;;;;;22.10;71.10;;;;;;4138333;28;20016;-52
2023/08/05 09:43:03;;;;;;;;;;;22.10;71.00;;;;;;4119828;28;19940;-52
2023/08/05 09:45:49;;;;;;;;;;;22.20;70.90;;;;;;4051954;28;19935;-43
2023/08/05 09:48:38;;;;;;;;;;;22.20;71.00;;;;;;4118713;28;20030;-43
2023/08/05 09:51:29;;;;;;;;;;;22.20;71.00;;;;;;4119319;28;20773;-43
2023/08/05 09:54:22;;;;;;;;;;;22.20;70.90;;;;;;4133451;28;20000;-44
2023/08/05 09:57:08;;;;;;;;;;;22.30;70.70;;;;;;4113509;28;20044;-52
2023/08/05 09:59:53;;;;;;;;;;;22.30;70.40;;;;;;4119712;28;20288;-43
2023/08/05 10:02:34;;;;;;;;;;;22.30;70.20;;;;;;4124389;28;19937;-43
2023/08/05 10:05:19;;;;;;;;;;;22.30;70.40;;;;;;4125724;28;20021;-44
2023/08/05 10:08:05;;;;;;;;;;;22.40;70.20;;;;;;4122103;28;19956;-50
2023/08/05 10:10:48;;;;;;;;;;;22.40;71.00;;;;;;4138678;28;19936;-49
2023/08/05 10:13:33;;;;;;;;;;;22.40;70.10;;;;;;4159578;28;19932;-50
2023/08/05 10:16:28;;;;;;;;;;;22.40;69.70;;;;;;4124504;28;19995;-52
2023/08/05 10:19:13;;;;;;;;;;;22.40;69.90;;;;;;4148440;28;19936;-50
2023/08/05 10:22:09;;;;;;;;;;;22.40;70.60;;;;;;4145815;28;20665;-52
2023/08/05 10:24:51;;;;;;;;;;;22.40;70.00;;;;;;4116442;28;19936;-49
2023/08/05 10:27:37;;;;;;;;;;;22.40;69.90;;;;;;4120871;28;20360;-45
2023/08/05 10:30:21;;;;;;;;;;;22.40;69.90;;;;;;4119275;28;19937;-43
2023/08/05 10:33:06;;;;;;;;;;;22.50;69.70;;;;;;4071768;28;19965;-50
2023/08/05 10:35:50;;;;;;;;;;;22.50;69.60;;;;;;4107578;28;19936;-44
2023/08/05 10:38:42;;;;;;;;;;;22.50;69.40;;;;;;4090608;28;19946;-44
2023/08/05 10:41:35;;;;;;;;;;;22.50;69.30;;;;;;4118841;28;19952;-52
2023/08/05 10:44:23;;;;;;;;;;;22.50;69.00;;;;;;4070996;28;20059;-43
2023/08/05 10:47:10;;;;;;;;;;;22.50;68.90;;;;;;4123294;28;19987;-52
2023/08/05 10:49:57;;;;;;;;;;;22.50;69.10;;;;;;4135068;28;19970;-51
2023/08/05 10:52:42;;;;;;;;;;;22.50;69.00;;;;;;4093651;28;19932;-53
2023/08/05 10:55:30;;;;;;;;;;;22.50;68.90;;;;;;4146049;28;19936;-50
2023/08/05 10:58:12;;;;;;;;;;;22.60;69.30;;;;;;4147317;28;19936;-52
2023/08/05 11:00:57;;;;;;;;;;;22.60;69.30;;;;;;4136778;28;19932;-50
2023/08/05 11:03:49;;;;;;;;;;;22.60;68.90;;;;;;4134249;28;20019;-42
2023/08/05 11:06:32;;;;;;;;;;;22.60;68.70;;;;;;4099472;28;20372;-44
2023/08/05 11:09:14;;;;;;;;;;;22.70;68.40;;;;;;4124359;28;20367;-43
2023/08/05 11:11:56;;;;;;;;;;;22.70;67.90;;;;;;4172479;28;19931;-43
2023/08/05 11:14:44;;;;;;;;;;;22.70;67.80;;;;;;4155628;28;19932;-43
2023/08/05 11:17:28;;;;;;;;;;;22.80;67.80;;;;;;4117019;28;19971;-42
2023/08/05 11:20:13;;;;;;;;;;;22.80;67.70;;;;;;4150466;28;20534;-42
2023/08/05 11:22:54;;;;;;;;;;;22.80;67.70;;;;;;4144085;28;20311;-43
2023/08/05 11:25:36;;;;;;;;;;;22.80;67.50;;;;;;4142916;28;19933;-44
2023/08/05 11:28:17;;;;;;;;;;;22.80;66.90;;;;;;4133284;28;20351;-43
2023/08/05 11:31:00;;;;;;;;;;;22.80;67.10;;;;;;4099070;28;19932;-50
2023/08/05 11:33:51;;;;;;;;;;;22.90;67.00;;;;;;4127157;28;19936;-44
2023/08/05 11:36:34;;;;;;;;;;;22.90;67.00;;;;;;4148473;28;19936;-44
2023/08/05 11:39:23;;;;;;;;;;;22.90;67.70;;;;;;4147858;28;19952;-49
2023/08/05 11:42:07;;;;;;;;;;;22.90;66.90;;;;;;4119941;28;20663;-44
2023/08/05 11:44:48;;;;;;;;;;;22.90;66.60;;;;;;4152400;28;19967;-51
2023/08/05 11:47:30;;;;;;;;;;;22.90;66.90;;;;;;4135884;28;20365;-50
2023/08/05 11:50:15;;;;;;;;;;;22.90;67.90;;;;;;4147194;28;19934;-50
2023/08/05 11:53:12;;;;;;;;;;;22.90;66.90;;;;;;4136528;28;19980;-54
2023/08/05 11:55:54;;;;;;;;;;;22.90;67.00;;;;;;4127245;28;20400;-52
2023/08/05 11:58:38;;;;;;;;;;;22.90;67.80;;;;;;4137467;28;20494;-42
2023/08/05 12:01:20;;;;;;;;;;;22.90;68.10;;;;;;4140352;28;19932;-44
2023/08/05 12:04:07;;;;;;;;;;;23.00;68.20;;;;;;4140855;28;20475;-52
2023/08/05 12:06:54;;;;;;;;;;;23.00;67.70;;;;;;4127346;28;19980;-51
2023/08/05 12:09:38;;;;;;;;;;;23.00;67.60;;;;;;4135010;28;20398;-52
2023/08/05 12:12:29;;;;;;;;;;;23.00;67.60;;;;;;4125273;28;20399;-58
2023/08/05 12:15:19;;;;;;;;;;;22.90;67.30;;;;;;4138833;28;20017;-53
2023/08/05 12:18:09;;;;;;;;;;;22.90;67.30;;;;;;4146829;28;20002;-51
2023/08/05 12:20:56;;;;;;;;;;;23.00;67.10;;;;;;4141462;28;19935;-53
2023/08/05 12:23:42;;;;;;;;;;;22.90;67.10;;;;;;4110628;28;20131;-51
2023/08/05 12:26:28;;;;;;;;;;;23.00;67.10;;;;;;4119578;28;20068;-52
2023/08/05 12:29:14;;;;;;;;;;;23.00;67.10;;;;;;4154369;28;20417;-54
2023/08/05 12:32:01;;;;;;;;;;;23.00;67.00;;;;;;4139384;28;20344;-52
2023/08/05 12:34:43;;;;;;;;;;;23.00;67.90;;;;;;4134686;28;19959;-52
2023/08/05 12:37:29;;;;;;;;;;;23.00;66.90;;;;;;4119604;28;19989;-52
2023/08/05 12:40:15;;;;;;;;;;;23.00;66.90;;;;;;4133307;28;20470;-52
2023/08/05 12:42:58;;;;;;;;;;;23.00;66.90;;;;;;4124774;28;20272;-52
2023/08/05 12:45:47;;;;;;;;;;;23.00;67.90;;;;;;4174593;28;20097;-51
2023/08/05 12:48:48;;;;;;;;;;;23.00;67.00;;;;;;4105754;28;19932;-50
2023/08/05 12:52:08;;;;;;;;;;;23.00;66.90;;;;;;4128318;28;19935;-50
2023/08/05 12:54:59;;;;;;;;;;;23.00;66.80;;;;;;4085195;28;19936;-52
2023/08/05 12:57:44;;;;;;;;;;;23.00;66.90;;;;;;4128876;28;19932;-52
2023/08/05 13:00:28;;;;;;;;;;;23.00;66.80;;;;;;4122636;28;20060;-53
2023/08/05 13:03:17;;;;;;;;;;;23.00;67.10;;;;;;4075151;28;26706;-54
2023/08/05 13:06:05;;;;;;;;;;;23.00;67.10;;;;;;4111250;28;19932;-50
2023/08/05 13:08:47;;;;;;;;;;;22.90;67.10;;;;;;4116016;28;19932;-49
2023/08/05 13:11:30;;;;;;;;;;;22.90;67.20;;;;;;4129587;28;19931;-44
2023/08/05 13:14:14;;;;;;;;;;;22.90;67.40;;;;;;4115505;28;19936;-50
2023/08/05 13:16:59;;;;;;;;;;;22.90;68.30;;;;;;4132054;28;19977;-52
2023/08/05 13:19:44;;;;;;;;;;;22.90;67.40;;;;;;4151736;28;20363;-52
2023/08/05 13:22:25;;;;;;;;;;;22.90;67.70;;;;;;4174580;28;19931;-54
2023/08/05 13:25:09;;;;;;;;;;;22.80;67.50;;;;;;4157682;28;19931;-52
2023/08/05 13:27:53;;;;;;;;;;;22.80;67.80;;;;;;4131823;28;20027;-52
2023/08/05 13:30:34;;;;;;;;;;;22.80;68.00;;;;;;4143475;28;19936;-54
2023/08/05 13:33:17;;;;;;;;;;;22.80;68.10;;;;;;4149898;28;19979;-51
2023/08/05 13:36:02;;;;;;;;;;;22.80;68.10;;;;;;4167906;28;19931;-52
2023/08/05 13:38:43;;;;;;;;;;;22.70;68.20;;;;;;4169452;28;20067;-53
2023/08/05 13:41:24;;;;;;;;;;;22.70;68.30;;;;;;4161104;28;20078;-50
2023/08/05 13:44:06;;;;;;;;;;;22.70;68.40;;;;;;4144608;28;19936;-51
2023/08/05 13:46:50;;;;;;;;;;;22.70;68.50;;;;;;4150157;28;19935;-52
2023/08/05 13:49:32;;;;;;;;;;;22.70;68.80;;;;;;4135862;28;19936;-51
2023/08/05 13:52:13;;;;;;;;;;;22.70;68.70;;;;;;4133378;28;19932;-48
2023/08/05 13:54:57;;;;;;;;;;;22.70;69.70;;;;;;4133994;28;20059;-49
2023/08/05 13:57:39;;;;;;;;;;;22.70;69.00;;;;;;4134814;28;19937;-47
2023/08/05 14:00:20;;;;;;;;;;;22.70;69.20;;;;;;4165308;28;19932;-52
2023/08/05 14:03:02;;;;;;;;;;;22.70;69.40;;;;;;4111129;28;19933;-43
2023/08/05 14:05:44;;;;;;;;;;;22.70;69.40;;;;;;4147008;28;20395;-43
2023/08/05 14:08:28;;;;;;;;;;;22.70;69.40;;;;;;4134723;28;19960;-42
2023/08/05 14:11:10;;;;;;;;;;;22.70;69.30;;;;;;4128144;28;19936;-43
2023/08/05 14:13:51;;;;;;;;;;;22.70;69.40;;;;;;4138109;28;20292;-43
2023/08/05 14:16:35;;;;;;;;;;;22.70;69.40;;;;;;4147508;28;19936;-42
2023/08/05 14:19:19;;;;;;;;;;;22.70;69.30;;;;;;4148535;28;19944;-42
2023/08/05 14:22:02;;;;;;;;;;;22.60;69.30;;;;;;4136908;28;19947;-43
2023/08/05 14:24:43;;;;;;;;;;;22.60;69.30;;;;;;4116494;28;19933;-42
2023/08/05 14:27:25;;;;;;;;;;;22.60;69.40;;;;;;4120174;28;19952;-49
2023/08/05 14:30:07;;;;;;;;;;;22.60;69.60;;;;;;4143075;28;19936;-47
2023/08/05 14:33:08;;;;;;;;;;;22.60;69.70;;;;;;4137969;28;19987;-48
2023/08/05 14:35:52;;;;;;;;;;;22.60;70.80;;;;;;4134376;28;19948;-50
2023/08/05 14:38:35;;;;;;;;;;;22.60;70.10;;;;;;4166695;28;19936;-50
2023/08/05 14:41:17;;;;;;;;;;;22.60;71.10;;;;;;4152625;28;19994;-50
2023/08/05 14:43:58;;;;;;;;;;;22.50;70.20;;;;;;4162911;28;19931;-43
2023/08/05 14:46:41;;;;;;;;;;;22.50;70.30;;;;;;4137434;28;19931;-42
2023/08/05 14:49:22;;;;;;;;;;;22.50;70.40;;;;;;4145671;28;19975;-43
2023/08/05 14:52:04;;;;;;;;;;;22.50;70.50;;;;;;4145289;28;19936;-42
2023/08/05 14:54:47;;;;;;;;;;;22.50;70.60;;;;;;4146466;28;20403;-42
2023/08/05 14:57:28;;;;;;;;;;;22.50;70.70;;;;;;4138031;28;20324;-42
2023/08/05 15:00:10;;;;;;;;;;;22.50;70.80;;;;;;4134772;28;20010;-41
2023/08/05 15:02:51;;;;;;;;;;;22.40;70.90;;;;;;4101057;28;20057;-42
2023/08/05 15:05:35;;;;;;;;;;;22.40;70.90;;;;;;4112475;28;19933;-42
2023/08/05 15:08:19;;;;;;;;;;;22.40;71.00;;;;;;4127745;28;19979;-42
2023/08/05 15:11:05;;;;;;;;;;;22.50;72.10;;;;;;4114294;28;19937;-42
2023/08/05 15:13:46;;;;;;;;;;;22.40;71.20;;;;;;4134345;28;20316;-42
2023/08/05 15:16:28;;;;;;;;;;;22.40;71.30;;;;;;4099478;28;19933;-42
2023/08/05 15:19:12;;;;;;;;;;;22.40;70.90;;;;;;4109741;28;20033;-43
2023/08/05 15:21:53;;;;;;;;;;;22.40;69.00;;;;;;4102721;28;20469;-49
2023/08/05 15:24:34;;;;;;;;;;;22.30;67.80;;;;;;4128339;28;19932;-49
2023/08/05 15:27:17;;;;;;;;;;;22.30;67.40;;;;;;4132196;28;19936;-49
2023/08/05 15:29:59;;;;;;;;;;;22.30;66.60;;;;;;4142777;28;20072;-41
2023/08/05 15:32:40;;;;;;;;;;;22.20;67.40;;;;;;4090417;28;20018;-42
2023/08/05 15:35:21;;;;;;;;;;;22.20;67.70;;;;;;4140603;28;19948;-42
2023/08/05 15:38:03;;;;;;;;;;;22.10;68.30;;;;;;4134199;28;19932;-48
2023/08/05 15:40:44;;;;;;;;;;;22.10;69.30;;;;;;4093025;28;20049;-47
2023/08/05 15:43:26;;;;;;;;;;;22.10;69.90;;;;;;4099845;28;20012;-47
2023/08/05 15:46:10;;;;;;;;;;;22.10;70.50;;;;;;4094436;28;19996;-48
2023/08/05 15:48:50;;;;;;;;;;;22.00;70.90;;;;;;4118432;28;20080;-47
2023/08/05 15:51:34;;;;;;;;;;;22.00;71.40;;;;;;4117299;28;20004;-49
2023/08/05 15:54:15;;;;;;;;;;;22.00;71.60;;;;;;4118271;28;19933;-47